createdAt,value
2019-01-17T00:00:10.967Z,71.21
2019-01-17T00:02:55.883Z,71.29
2019-01-17T00:05:34.757Z,71.22
2019-01-17T00:08:21.347Z,71.08
2019-01-17T00:11:08.130Z,71.53
2019-01-17T00:14:04.833Z,71.85
2019-01-17T00:17:03.078Z,71.64
2019-01-17T00:19:49.868Z,72.07
2019-01-17T00:22:42.624Z,72.22
2019-01-17T00:25:27.678Z,72.72
2019-01-17T00:28:05.667Z,73.06
2019-01-17T00:30:56.464Z,72.99
2019-01-17T00:33:37.078Z,73.20
2019-01-17T00:36:27.902Z,73.22
2019-01-17T00:39:14.469Z,73.29
2019-01-17T00:42:02.570Z,73.35
2019-01-17T00:44:48.343Z,73.24
2019-01-17T00:47:36.238Z,72.66
2019-01-17T00:50:29.249Z,72.23
2019-01-17T00:53:12.256Z,72.19
2019-01-17T00:55:55.208Z,72.11
2019-01-17T00:58:46.187Z,71.87
2019-01-17T01:01:33.145Z,71.80
2019-01-17T01:04:27.036Z,71.99
2019-01-17T01:07:21.211Z,72.18
2019-01-17T01:10:04.129Z,72.15
2019-01-17T01:12:51.193Z,72.08
2019-01-17T01:15:39.125Z,71.98
2019-01-17T01:18:19.411Z,72.54
2019-01-17T01:21:07.087Z,72.69
2019-01-17T01:23:53.969Z,73.03
2019-01-17T01:26:41.975Z,73.35
2019-01-17T01:29:47.813Z,73.31
2019-01-17T01:32:24.693Z,73.30
2019-01-17T01:35:12.579Z,73.36
2019-01-17T01:38:01.554Z,73.54
2019-01-17T01:40:48.731Z,73.59
2019-01-17T01:43:39.664Z,73.69
2019-01-17T01:46:45.572Z,73.28
2019-01-17T01:49:26.175Z,73.39
2019-01-17T01:52:32.226Z,73.53
2019-01-17T01:55:01.164Z,73.87
2019-01-17T01:57:30.034Z,73.41
2019-01-17T01:59:58.905Z,73.02
2019-01-17T02:02:27.923Z,73.15
2019-01-17T02:04:56.955Z,73.15
2019-01-17T02:07:26.203Z,72.96
2019-01-17T02:09:55.148Z,72.53
2019-01-17T02:12:24.058Z,72.50
2019-01-17T02:14:52.958Z,71.44
2019-01-17T02:17:21.882Z,71.10
2019-01-17T02:19:50.664Z,70.63
2019-01-17T02:22:19.829Z,70.60
2019-01-17T02:24:48.763Z,70.76
2019-01-17T02:27:17.650Z,70.83
2019-01-17T02:29:46.630Z,70.90
2019-01-17T02:32:15.426Z,70.88
2019-01-17T02:34:44.391Z,70.35
2019-01-17T02:37:15.719Z,70.36
2019-01-17T02:39:44.591Z,70.12
2019-01-17T02:42:13.472Z,70.22
2019-01-17T02:44:54.101Z,70.15
2019-01-17T02:47:23.015Z,69.91
2019-01-17T02:49:51.903Z,70.05
2019-01-17T02:52:20.921Z,69.94
2019-01-17T02:54:49.866Z,69.74
2019-01-17T02:57:18.819Z,69.95
2019-01-17T02:59:47.826Z,70.05
2019-01-17T03:02:16.649Z,70.75
2019-01-17T03:04:45.521Z,70.49
2019-01-17T03:07:14.415Z,70.69
2019-01-17T03:09:43.354Z,71.01
2019-01-17T03:12:12.234Z,70.43
2019-01-17T03:14:41.227Z,70.22
2019-01-17T03:17:10.236Z,70.18
2019-01-17T03:19:39.123Z,70.35
2019-01-17T03:22:08.162Z,70.56
2019-01-17T03:24:43.002Z,70.39
2019-01-17T03:27:07.825Z,70.51
2019-01-17T03:29:36.740Z,70.64
2019-01-17T03:32:05.804Z,70.66
2019-01-17T03:34:35.161Z,70.72
2019-01-17T03:37:04.050Z,71.12
2019-01-17T03:39:33.107Z,71.34
2019-01-17T03:42:02.022Z,71.64
2019-01-17T03:44:30.927Z,72.06
2019-01-17T03:47:00.180Z,72.20
2019-01-17T03:49:29.009Z,72.29
2019-01-17T03:51:57.907Z,72.40
2019-01-17T03:54:26.956Z,72.68
2019-01-17T03:56:55.809Z,72.90
2019-01-17T03:59:24.888Z,72.98
2019-01-17T04:01:53.874Z,73.03
2019-01-17T04:04:22.852Z,73.50
2019-01-17T04:06:51.713Z,73.79
2019-01-17T04:09:20.625Z,73.97
2019-01-17T04:11:49.567Z,74.07
2019-01-17T04:14:18.442Z,74.49
2019-01-17T04:16:47.233Z,74.70
2019-01-17T04:19:16.176Z,74.66
2019-01-17T04:21:45.049Z,74.67
2019-01-17T04:24:14.086Z,74.51
2019-01-17T04:26:43.303Z,74.82
2019-01-17T04:29:12.247Z,75.02
2019-01-17T04:31:41.307Z,75.31
2019-01-17T04:34:10.359Z,75.17
2019-01-17T04:36:39.358Z,75.47
2019-01-17T04:39:08.441Z,75.65
2019-01-17T04:41:37.325Z,75.91
2019-01-17T04:44:06.605Z,75.87
2019-01-17T04:46:35.645Z,75.77
2019-01-17T04:49:04.636Z,76.11
2019-01-17T04:51:33.952Z,76.30
2019-01-17T04:54:02.922Z,76.51
2019-01-17T04:56:31.977Z,76.68
2019-01-17T04:59:00.883Z,76.63
2019-01-17T05:01:29.805Z,76.49
2019-01-17T05:03:58.658Z,76.48
2019-01-17T05:06:27.616Z,76.93
2019-01-17T05:08:56.608Z,76.81
2019-01-17T05:11:25.535Z,76.95
2019-01-17T05:13:54.379Z,77.12
2019-01-17T05:16:23.203Z,77.22
2019-01-17T05:18:52.215Z,77.46
2019-01-17T05:21:21.298Z,77.70
2019-01-17T05:23:50.185Z,78.26
2019-01-17T05:26:19.023Z,78.53
2019-01-17T05:28:47.954Z,78.76
2019-01-17T05:31:44.020Z,78.76
2019-01-17T05:34:12.863Z,78.57
2019-01-17T05:36:41.688Z,78.58
2019-01-17T05:39:10.652Z,78.67
2019-01-17T05:41:39.573Z,78.61
2019-01-17T05:44:08.546Z,78.86
2019-01-17T05:46:37.341Z,79.07
2019-01-17T05:49:06.292Z,78.93
2019-01-17T05:51:35.164Z,79.14
2019-01-17T05:54:04.191Z,79.53
2019-01-17T05:56:33.077Z,79.73
2019-01-17T05:59:01.823Z,79.92
2019-01-17T06:01:30.811Z,80.06
2019-01-17T06:03:59.580Z,80.42
2019-01-17T06:06:33.081Z,80.62
2019-01-17T06:08:59.327Z,81.07
2019-01-17T06:11:28.188Z,80.82
2019-01-17T06:13:56.964Z,81.05
2019-01-17T06:16:25.803Z,81.33
2019-01-17T06:18:54.792Z,81.75
2019-01-17T06:21:23.662Z,82.00
2019-01-17T06:23:52.515Z,81.87
2019-01-17T06:26:21.561Z,81.98
2019-01-17T06:28:50.356Z,82.31
2019-01-17T06:31:19.280Z,82.61
2019-01-17T06:33:48.179Z,82.64
2019-01-17T06:36:16.999Z,82.57
2019-01-17T06:38:46.042Z,82.39
2019-01-17T06:41:15.817Z,82.67
2019-01-17T06:43:44.644Z,82.38
2019-01-17T06:46:13.690Z,82.21
2019-01-17T06:48:42.551Z,82.30
2019-01-17T06:51:12.753Z,82.66
2019-01-17T06:53:41.704Z,82.58
2019-01-17T06:56:10.632Z,82.59
2019-01-17T06:58:39.634Z,83.25
2019-01-17T07:01:08.767Z,83.85
2019-01-17T07:03:38.052Z,83.94
2019-01-17T07:06:07.195Z,84.35
2019-01-17T07:08:36.101Z,84.83
2019-01-17T07:11:05.066Z,85.27
2019-01-17T07:13:34.193Z,85.46
2019-01-17T07:16:04.969Z,85.64
2019-01-17T07:18:33.962Z,86.01
2019-01-17T07:21:03.115Z,86.03
2019-01-17T07:23:32.467Z,86.69
2019-01-17T07:26:01.433Z,86.89
2019-01-17T07:28:30.496Z,86.92
2019-01-17T07:30:59.700Z,87.08
2019-01-17T07:33:28.867Z,87.51
2019-01-17T07:35:57.998Z,87.36
2019-01-17T07:38:28.362Z,87.32
2019-01-17T07:40:58.317Z,87.14
2019-01-17T07:43:28.338Z,87.43
2019-01-17T07:45:57.325Z,87.51
2019-01-17T07:48:26.560Z,87.40
2019-01-17T07:50:55.850Z,87.32
2019-01-17T07:53:25.380Z,87.41
2019-01-17T07:55:54.849Z,87.45
2019-01-17T07:58:27.582Z,87.18
2019-01-17T08:00:57.841Z,86.92
2019-01-17T08:03:27.970Z,87.23
2019-01-17T08:05:58.185Z,86.92
2019-01-17T08:08:30.242Z,86.72
2019-01-17T08:10:59.995Z,86.70
2019-01-17T08:13:38.381Z,86.69
2019-01-17T08:16:08.809Z,86.42
2019-01-17T08:18:42.786Z,86.57
2019-01-17T08:21:26.038Z,86.56
2019-01-17T08:23:57.278Z,86.38
2019-01-17T08:26:37.498Z,86.37
2019-01-17T08:29:14.157Z,86.46
2019-01-17T08:31:48.651Z,86.62
2019-01-17T08:34:18.015Z,85.58
2019-01-17T08:36:47.201Z,85.59
2019-01-17T08:39:26.617Z,85.06
2019-01-17T08:41:55.956Z,85.16
2019-01-17T08:44:25.416Z,84.95
2019-01-17T08:46:55.045Z,85.00
2019-01-17T08:49:24.441Z,85.04
2019-01-17T08:51:53.754Z,85.51
2019-01-17T08:54:23.182Z,84.72
2019-01-17T08:56:52.485Z,84.66
2019-01-17T08:59:21.712Z,84.90
2019-01-17T09:01:51.083Z,85.04
2019-01-17T09:04:20.399Z,85.03
2019-01-17T09:06:50.618Z,84.77
2019-01-17T09:09:19.832Z,84.52
2019-01-17T09:11:48.930Z,84.39
2019-01-17T09:14:18.238Z,84.35
2019-01-17T09:16:47.110Z,83.71
2019-01-17T09:19:16.343Z,83.23
2019-01-17T09:21:45.619Z,83.70
2019-01-17T09:24:14.961Z,83.14
2019-01-17T09:26:44.470Z,82.49
2019-01-17T09:29:32.795Z,81.95
2019-01-17T09:35:33.515Z,81.78
2019-01-17T09:38:02.677Z,80.81
2019-01-17T09:40:33.146Z,81.16
2019-01-17T09:43:03.199Z,81.85
2019-01-17T09:45:35.382Z,81.15
2019-01-17T09:48:05.429Z,81.07
2019-01-17T09:50:38.753Z,81.00
2019-01-17T09:53:08.694Z,81.28
2019-01-17T09:55:38.373Z,81.14
2019-01-17T09:58:28.550Z,80.96
2019-01-17T10:00:58.488Z,81.00
2019-01-17T10:03:29.578Z,80.97
2019-01-17T10:05:59.252Z,80.95
2019-01-17T10:08:31.486Z,81.23
2019-01-17T10:11:02.578Z,81.42
2019-01-17T10:13:32.540Z,81.44
2019-01-17T10:16:53.267Z,81.49
2019-01-17T10:20:17.355Z,81.15
2019-01-17T10:23:26.292Z,81.58
2019-01-17T10:26:38.132Z,81.13
2019-01-17T10:29:51.768Z,81.85
2019-01-17T10:33:11.094Z,81.89
2019-01-17T10:35:57.908Z,82.27
2019-01-17T10:38:46.877Z,81.86
2019-01-17T10:41:29.010Z,82.62
2019-01-17T10:44:36.114Z,82.26
2019-01-17T10:47:29.299Z,82.37
2019-01-17T10:50:32.145Z,81.81
2019-01-17T10:53:56.792Z,82.51
2019-01-17T10:56:46.092Z,82.82
2019-01-17T10:59:44.787Z,82.29
2019-01-17T11:02:54.393Z,82.56
2019-01-17T11:05:52.655Z,82.37
2019-01-17T11:08:56.591Z,82.51
2019-01-17T11:12:06.841Z,83.39
2019-01-17T11:15:09.855Z,84.04
2019-01-17T11:18:22.434Z,84.55
2019-01-17T11:21:36.926Z,84.95
2019-01-17T11:24:44.859Z,85.48
2019-01-17T11:27:45.440Z,86.04
2019-01-17T11:30:54.678Z,86.85
2019-01-17T11:34:07.713Z,87.08
2019-01-17T11:37:14.924Z,86.89
2019-01-17T11:40:20.306Z,86.85
2019-01-17T11:43:17.271Z,86.57
2019-01-17T11:46:02.569Z,86.87
2019-01-17T11:49:11.666Z,86.03
2019-01-17T11:52:25.967Z,85.38
2019-01-17T11:55:22.883Z,85.58
2019-01-17T11:58:30.752Z,84.21
2019-01-17T12:01:47.408Z,83.33
2019-01-17T12:04:37.640Z,83.54
2019-01-17T12:07:12.833Z,83.22
2019-01-17T12:09:42.023Z,83.49
2019-01-17T12:12:13.651Z,82.94
2019-01-17T12:14:43.679Z,83.10
2019-01-17T12:17:13.608Z,82.44
2019-01-17T12:19:42.994Z,82.37
2019-01-17T12:22:12.145Z,82.35
2019-01-17T12:24:41.201Z,81.17
2019-01-17T12:27:10.294Z,81.21
2019-01-17T12:29:39.942Z,81.37
2019-01-17T12:32:11.419Z,81.35
2019-01-17T12:35:14.536Z,80.79
2019-01-17T12:37:44.201Z,80.43
2019-01-17T12:40:15.145Z,80.45
2019-01-17T12:42:44.315Z,80.16
2019-01-17T12:45:13.965Z,80.43
2019-01-17T12:47:45.129Z,80.43
2019-01-17T12:50:17.680Z,80.75
2019-01-17T12:52:47.080Z,81.13
2019-01-17T12:55:16.759Z,81.09
2019-01-17T12:57:45.948Z,79.00
2019-01-17T13:00:20.862Z,78.83
2019-01-17T13:02:50.404Z,78.99
2019-01-17T13:05:19.581Z,78.23
2019-01-17T13:07:48.678Z,78.55
2019-01-17T13:10:18.482Z,78.73
2019-01-17T13:12:47.747Z,78.11
2019-01-17T13:15:16.917Z,76.96
2019-01-17T13:17:46.066Z,76.92
2019-01-17T13:20:16.854Z,77.56
2019-01-17T13:22:45.994Z,77.46
2019-01-17T13:25:18.105Z,77.96
2019-01-17T13:27:47.198Z,77.89
2019-01-17T13:30:18.594Z,77.36
2019-01-17T13:32:48.422Z,77.19
2019-01-17T13:35:18.737Z,76.82
2019-01-17T13:37:48.414Z,75.53
2019-01-17T13:40:22.105Z,74.98
2019-01-17T13:42:51.401Z,73.44
2019-01-17T13:45:21.574Z,72.39
2019-01-17T13:47:51.481Z,72.86
2019-01-17T13:50:21.165Z,72.10
2019-01-17T13:52:50.950Z,72.10
2019-01-17T13:55:20.669Z,71.70
2019-01-17T13:57:51.250Z,71.86
2019-01-17T14:00:23.730Z,71.75
2019-01-17T14:02:53.411Z,71.21
2019-01-17T14:05:23.017Z,72.19
2019-01-17T14:07:52.681Z,71.33
2019-01-17T14:10:22.164Z,71.54
2019-01-17T14:12:51.874Z,70.62
2019-01-17T14:15:24.151Z,70.99
2019-01-17T14:17:54.517Z,71.05
2019-01-17T14:20:24.112Z,70.08
2019-01-17T14:22:53.817Z,70.79
2019-01-17T14:25:23.238Z,71.25
2019-01-17T14:27:52.805Z,71.86
2019-01-17T14:30:32.630Z,72.34
2019-01-17T14:33:01.739Z,71.92
2019-01-17T14:35:31.384Z,72.64
2019-01-17T14:38:01.302Z,72.18
2019-01-17T14:40:30.865Z,72.73
2019-01-17T14:43:00.330Z,72.95
2019-01-17T14:45:30.337Z,72.85
2019-01-17T14:48:00.091Z,72.24
2019-01-17T14:50:31.597Z,71.70
2019-01-17T14:53:01.494Z,71.98
2019-01-17T14:55:30.943Z,71.94
2019-01-17T14:58:00.527Z,72.46
2019-01-17T15:00:31.855Z,72.39
2019-01-17T15:03:01.614Z,72.86
2019-01-17T15:05:31.014Z,73.00
2019-01-17T15:08:01.166Z,73.01
2019-01-17T15:10:37.938Z,73.48
2019-01-17T15:13:09.766Z,73.80
2019-01-17T15:15:39.954Z,74.30
2019-01-17T15:18:10.799Z,74.61
2019-01-17T15:20:40.745Z,74.85
2019-01-17T15:23:11.753Z,74.42
2019-01-17T15:25:41.909Z,74.90
2019-01-17T15:28:11.261Z,75.40
2019-01-17T15:30:42.276Z,75.65
2019-01-17T15:33:12.223Z,75.64
2019-01-17T15:35:42.197Z,75.75
2019-01-17T15:38:12.713Z,75.13
2019-01-17T15:40:43.179Z,75.26
2019-01-17T15:43:14.129Z,75.10
2019-01-17T15:45:44.013Z,74.57
2019-01-17T15:48:14.065Z,73.51
2019-01-17T15:50:43.999Z,73.99
2019-01-17T15:53:16.347Z,74.10
2019-01-17T15:55:49.174Z,74.25
2019-01-17T15:58:18.096Z,74.38
2019-01-17T16:00:47.248Z,74.91
2019-01-17T16:03:16.262Z,75.26
2019-01-17T16:05:45.473Z,75.83
2019-01-17T16:08:14.824Z,75.32
2019-01-17T16:10:43.791Z,73.56
2019-01-17T16:13:12.654Z,73.04
2019-01-17T16:15:42.269Z,73.37
2019-01-17T16:18:11.114Z,72.91
2019-01-17T16:20:40.291Z,73.04
2019-01-17T16:23:09.363Z,73.08
2019-01-17T16:25:38.420Z,72.80
2019-01-17T16:28:07.345Z,73.29
2019-01-17T16:30:36.308Z,76.45
2019-01-17T16:33:05.673Z,81.17
2019-01-17T16:35:35.405Z,85.04
2019-01-17T16:38:04.383Z,88.29
2019-01-17T16:40:34.253Z,90.05
2019-01-17T16:43:04.229Z,91.13
2019-01-17T16:45:35.657Z,92.08
2019-01-17T16:48:08.947Z,92.57
2019-01-17T16:50:39.113Z,92.46
2019-01-17T16:53:08.927Z,93.14
2019-01-17T16:55:38.347Z,93.32
2019-01-17T16:58:08.066Z,93.29
2019-01-17T17:00:43.817Z,93.05
2019-01-17T17:03:13.328Z,93.08
2019-01-17T17:05:43.247Z,93.21
2019-01-17T17:08:13.254Z,92.99
2019-01-17T17:10:43.092Z,93.37
2019-01-17T17:13:12.556Z,93.79
2019-01-17T17:15:44.193Z,93.79
2019-01-17T17:18:13.641Z,93.71
2019-01-17T17:20:43.130Z,93.75
2019-01-17T17:23:13.235Z,94.01
2019-01-17T17:25:43.023Z,94.07
2019-01-17T17:28:12.652Z,93.74
2019-01-17T17:30:46.476Z,93.77
2019-01-17T17:33:21.136Z,93.56
2019-01-17T17:35:55.128Z,93.74
2019-01-17T17:38:33.950Z,93.65
2019-01-17T17:41:03.078Z,93.42
2019-01-17T17:43:32.257Z,93.59
2019-01-17T17:46:01.182Z,93.46
2019-01-17T17:48:30.056Z,93.58
2019-01-17T17:50:58.909Z,93.57
2019-01-17T17:53:27.768Z,93.63
2019-01-17T17:55:56.693Z,93.31
2019-01-17T17:58:41.349Z,93.02
2019-01-17T18:01:31.667Z,92.99
2019-01-17T18:04:14.068Z,93.13
2019-01-17T18:06:56.785Z,93.23
2019-01-17T18:09:43.529Z,93.22
2019-01-17T18:12:13.092Z,93.55
2019-01-17T18:14:44.919Z,93.74
2019-01-17T18:17:14.454Z,93.74
2019-01-17T18:19:44.070Z,93.79
2019-01-17T18:22:13.559Z,93.81
2019-01-17T18:24:43.379Z,93.80
2019-01-17T18:27:12.702Z,93.86
2019-01-17T18:29:42.289Z,93.91
2019-01-17T18:32:11.508Z,93.88
2019-01-17T18:34:41.007Z,94.27
2019-01-17T18:37:10.610Z,94.65
2019-01-17T18:39:40.313Z,94.46
2019-01-17T18:42:09.560Z,93.85
2019-01-17T18:44:38.501Z,93.44
2019-01-17T18:47:07.515Z,93.55
2019-01-17T18:49:36.387Z,93.83
2019-01-17T18:52:05.357Z,93.92
2019-01-17T18:54:34.166Z,93.75
2019-01-17T18:57:03.470Z,93.29
2019-01-17T18:59:32.471Z,92.53
2019-01-17T19:02:01.466Z,92.22
2019-01-17T19:04:31.743Z,92.06
2019-01-17T19:07:01.149Z,92.17
2019-01-17T19:09:30.418Z,92.51
2019-01-17T19:11:59.419Z,92.71
2019-01-17T19:14:30.110Z,92.73
2019-01-17T19:16:59.369Z,92.19
2019-01-17T19:19:28.288Z,90.42
2019-01-17T19:21:57.621Z,89.40
2019-01-17T19:24:26.962Z,88.72
2019-01-17T19:26:57.374Z,88.54
2019-01-17T19:29:26.391Z,87.02
2019-01-17T19:31:55.543Z,85.42
2019-01-17T19:34:24.654Z,84.48
2019-01-17T19:36:53.695Z,83.74
2019-01-17T19:39:22.718Z,83.66
2019-01-17T19:41:51.826Z,83.87
2019-01-17T19:44:21.562Z,84.10
2019-01-17T19:46:50.699Z,84.41
2019-01-17T19:49:19.948Z,84.79
2019-01-17T19:51:48.933Z,85.30
2019-01-17T19:54:17.797Z,85.51
2019-01-17T19:56:46.675Z,85.99
2019-01-17T19:59:15.607Z,87.13
2019-01-17T20:01:44.532Z,87.61
2019-01-17T20:04:13.712Z,88.12
2019-01-17T20:06:42.697Z,88.70
2019-01-17T20:09:14.128Z,88.91
2019-01-17T20:11:42.981Z,89.10
2019-01-17T20:14:12.007Z,88.99
2019-01-17T20:16:40.984Z,88.16
2019-01-17T20:19:10.093Z,86.36
2019-01-17T20:21:38.969Z,85.36
2019-01-17T20:24:08.072Z,83.92
2019-01-17T20:26:37.085Z,82.40
2019-01-17T20:29:06.003Z,83.99
2019-01-17T20:31:35.261Z,84.89
2019-01-17T20:34:04.337Z,85.24
2019-01-17T20:36:33.510Z,86.93
2019-01-17T20:39:02.602Z,88.32
2019-01-17T20:41:31.713Z,89.05
2019-01-17T20:44:01.680Z,90.48
2019-01-17T20:46:31.064Z,91.90
2019-01-17T20:49:00.273Z,93.13
2019-01-17T20:51:29.420Z,94.09
2019-01-17T20:53:58.356Z,94.88
2019-01-17T20:56:27.337Z,95.66
2019-01-17T20:58:56.197Z,95.96
2019-01-17T21:01:51.805Z,96.07
2019-01-17T21:04:20.799Z,96.26
2019-01-17T21:06:49.813Z,96.42
2019-01-17T21:09:18.687Z,96.40
2019-01-17T21:11:47.586Z,96.26
2019-01-17T21:14:16.509Z,95.81
2019-01-17T21:16:45.341Z,95.15
2019-01-17T21:19:14.465Z,94.60
2019-01-17T21:21:43.380Z,94.06
2019-01-17T21:24:12.169Z,93.16
2019-01-17T21:26:41.089Z,92.34
2019-01-17T21:29:09.886Z,91.97
2019-01-17T21:31:38.872Z,91.89
2019-01-17T21:34:08.019Z,91.90
2019-01-17T21:36:36.876Z,92.02
2019-01-17T21:39:08.080Z,92.22
2019-01-17T21:41:38.167Z,92.48
2019-01-17T21:44:07.103Z,92.82
2019-01-17T21:46:36.149Z,92.99
2019-01-17T21:49:05.249Z,92.93
2019-01-17T21:51:34.323Z,92.81
2019-01-17T21:54:03.413Z,92.66
2019-01-17T21:56:33.477Z,92.60
2019-01-17T21:59:02.376Z,92.50
2019-01-17T22:01:31.338Z,92.36
2019-01-17T22:04:00.296Z,91.54
2019-01-17T22:06:29.241Z,90.18
2019-01-17T22:08:58.430Z,89.40
2019-01-17T22:11:27.461Z,88.49
2019-01-17T22:13:56.452Z,87.76
2019-01-17T22:16:25.355Z,87.00
2019-01-17T22:18:54.253Z,86.81
2019-01-17T22:21:50.291Z,86.91
2019-01-17T22:24:19.555Z,86.91
2019-01-17T22:26:48.512Z,87.03
2019-01-17T22:29:19.384Z,86.32
2019-01-17T22:31:48.375Z,86.00
2019-01-17T22:34:17.419Z,85.65
2019-01-17T22:36:46.232Z,85.69
2019-01-17T22:39:15.180Z,86.10
2019-01-17T22:41:44.130Z,86.02
2019-01-17T22:44:13.074Z,86.21
2019-01-17T22:46:41.917Z,86.25
2019-01-17T22:49:10.819Z,86.51
2019-01-17T22:51:39.823Z,86.77
2019-01-17T22:54:08.906Z,86.75
2019-01-17T22:56:37.851Z,86.54
2019-01-17T22:59:09.379Z,86.40
2019-01-17T23:01:37.542Z,86.39
2019-01-17T23:04:07.174Z,86.32
2019-01-17T23:06:36.260Z,86.26
2019-01-17T23:09:07.975Z,85.79
2019-01-17T23:11:37.043Z,85.20
2019-01-17T23:14:06.210Z,85.02
2019-01-17T23:16:35.382Z,85.03
2019-01-17T23:19:04.708Z,84.83
2019-01-17T23:21:33.579Z,84.83
2019-01-17T23:24:02.547Z,84.84
2019-01-17T23:26:31.570Z,84.97
2019-01-17T23:29:00.482Z,84.86
2019-01-17T23:31:30.694Z,84.93
2019-01-17T23:33:59.590Z,84.82
2019-01-17T23:36:28.653Z,84.48
2019-01-17T23:38:57.624Z,84.59
2019-01-17T23:41:27.753Z,84.63
2019-01-17T23:43:56.730Z,84.39
2019-01-17T23:46:25.575Z,84.64
2019-01-17T23:48:54.467Z,85.07
2019-01-17T23:51:23.489Z,85.37
2019-01-17T23:53:52.475Z,85.56
2019-01-17T23:56:21.438Z,85.76
2019-01-17T23:58:50.427Z,86.23
